sensor_id;sensor_type;location;lat;lon;timestamp;P1;durP1;ratioP1;P2;durP2;ratioP2
27209;SDS011;14721;42.668;23.386;2023-04-25T00:02:02;5.03;;;2.80;;
27209;SDS011;14721;42.668;23.386;2023-04-25T00:04:28;4.93;;;2.90;;
27209;SDS011;14721;42.668;23.386;2023-04-25T00:06:55;5.83;;;2.70;;
27209;SDS011;14721;42.668;23.386;2023-04-25T00:09:21;7.77;;;3.00;;
27209;SDS011;14721;42.668;23.386;2023-04-25T00:11:47;6.63;;;3.70;;
27209;SDS011;14721;42.668;23.386;2023-04-25T00:14:13;5.33;;;3.07;;
27209;SDS011;14721;42.668;23.386;2023-04-25T00:16:38;6.00;;;3.00;;
27209;SDS011;14721;42.668;23.386;2023-04-25T00:19:06;5.37;;;3.13;;
27209;SDS011;14721;42.668;23.386;2023-04-25T00:21:32;4.90;;;2.83;;
27209;SDS011;14721;42.668;23.386;2023-04-25T00:23:58;9.70;;;4.00;;
27209;SDS011;14721;42.668;23.386;2023-04-25T00:26:25;6.43;;;3.20;;
27209;SDS011;14721;42.668;23.386;2023-04-25T00:28:51;5.37;;;2.80;;
27209;SDS011;14721;42.668;23.386;2023-04-25T00:31:16;6.77;;;3.73;;
27209;SDS011;14721;42.668;23.386;2023-04-25T00:33:42;7.67;;;4.00;;
27209;SDS011;14721;42.668;23.386;2023-04-25T00:36:08;7.67;;;4.53;;
27209;SDS011;14721;42.668;23.386;2023-04-25T00:38:36;9.13;;;4.07;;
27209;SDS011;14721;42.668;23.386;2023-04-25T00:41:04;5.57;;;3.07;;
27209;SDS011;14721;42.668;23.386;2023-04-25T00:43:33;9.63;;;3.67;;
27209;SDS011;14721;42.668;23.386;2023-04-25T00:45:59;6.13;;;3.53;;
27209;SDS011;14721;42.668;23.386;2023-04-25T00:48:26;6.83;;;3.00;;
27209;SDS011;14721;42.668;23.386;2023-04-25T00:50:52;6.53;;;2.93;;
27209;SDS011;14721;42.668;23.386;2023-04-25T00:53:21;7.33;;;3.47;;
27209;SDS011;14721;42.668;23.386;2023-04-25T00:55:48;4.40;;;2.60;;
27209;SDS011;14721;42.668;23.386;2023-04-25T00:58:17;5.57;;;2.97;;
27209;SDS011;14721;42.668;23.386;2023-04-25T01:00:43;5.30;;;2.97;;
27209;SDS011;14721;42.668;23.386;2023-04-25T01:03:12;6.93;;;3.07;;
27209;SDS011;14721;42.668;23.386;2023-04-25T01:05:47;5.93;;;2.90;;
27209;SDS011;14721;42.668;23.386;2023-04-25T01:08:13;4.47;;;2.27;;
27209;SDS011;14721;42.668;23.386;2023-04-25T01:10:39;4.60;;;2.53;;
27209;SDS011;14721;42.668;23.386;2023-04-25T01:13:05;4.60;;;2.40;;
27209;SDS011;14721;42.668;23.386;2023-04-25T01:15:30;4.67;;;2.60;;
27209;SDS011;14721;42.668;23.386;2023-04-25T01:17:57;8.17;;;2.60;;
27209;SDS011;14721;42.668;23.386;2023-04-25T01:20:26;8.17;;;2.47;;
27209;SDS011;14721;42.668;23.386;2023-04-25T01:22:53;6.17;;;2.33;;
27209;SDS011;14721;42.668;23.386;2023-04-25T01:25:20;7.00;;;2.40;;
27209;SDS011;14721;42.668;23.386;2023-04-25T01:27:47;6.60;;;3.00;;
27209;SDS011;14721;42.668;23.386;2023-04-25T01:30:13;6.43;;;2.77;;
27209;SDS011;14721;42.668;23.386;2023-04-25T01:32:41;4.47;;;2.77;;
27209;SDS011;14721;42.668;23.386;2023-04-25T01:35:08;7.70;;;3.20;;
27209;SDS011;14721;42.668;23.386;2023-04-25T01:37:37;5.47;;;2.93;;
27209;SDS011;14721;42.668;23.386;2023-04-25T01:40:06;6.90;;;2.67;;
27209;SDS011;14721;42.668;23.386;2023-04-25T01:42:34;5.60;;;2.83;;
27209;SDS011;14721;42.668;23.386;2023-04-25T01:45:01;6.00;;;3.07;;
27209;SDS011;14721;42.668;23.386;2023-04-25T01:47:27;7.93;;;3.67;;
27209;SDS011;14721;42.668;23.386;2023-04-25T01:49:53;5.80;;;3.10;;
27209;SDS011;14721;42.668;23.386;2023-04-25T01:52:18;5.43;;;3.30;;
27209;SDS011;14721;42.668;23.386;2023-04-25T01:54:44;4.13;;;2.23;;
27209;SDS011;14721;42.668;23.386;2023-04-25T01:57:10;6.03;;;3.43;;
27209;SDS011;14721;42.668;23.386;2023-04-25T01:59:36;6.50;;;3.37;;
27209;SDS011;14721;42.668;23.386;2023-04-25T02:02:02;6.13;;;3.07;;
27209;SDS011;14721;42.668;23.386;2023-04-25T02:04:30;5.93;;;3.20;;
27209;SDS011;14721;42.668;23.386;2023-04-25T02:06:56;7.10;;;3.37;;
27209;SDS011;14721;42.668;23.386;2023-04-25T02:09:22;5.73;;;3.20;;
27209;SDS011;14721;42.668;23.386;2023-04-25T02:11:48;5.33;;;3.10;;
27209;SDS011;14721;42.668;23.386;2023-04-25T02:14:13;7.50;;;4.03;;
27209;SDS011;14721;42.668;23.386;2023-04-25T02:16:39;6.53;;;4.20;;
27209;SDS011;14721;42.668;23.386;2023-04-25T02:19:05;5.47;;;3.33;;
27209;SDS011;14721;42.668;23.386;2023-04-25T02:21:31;6.77;;;3.57;;
27209;SDS011;14721;42.668;23.386;2023-04-25T02:23:57;8.57;;;4.07;;
27209;SDS011;14721;42.668;23.386;2023-04-25T02:26:22;8.57;;;3.93;;
27209;SDS011;14721;42.668;23.386;2023-04-25T02:28:51;8.20;;;4.57;;
27209;SDS011;14721;42.668;23.386;2023-04-25T02:31:17;9.20;;;4.00;;
27209;SDS011;14721;42.668;23.386;2023-04-25T02:33:42;7.17;;;3.60;;
27209;SDS011;14721;42.668;23.386;2023-04-25T02:36:08;7.43;;;3.93;;
27209;SDS011;14721;42.668;23.386;2023-04-25T02:38:33;7.27;;;3.77;;
27209;SDS011;14721;42.668;23.386;2023-04-25T02:40:59;9.40;;;4.67;;
27209;SDS011;14721;42.668;23.386;2023-04-25T02:43:25;7.07;;;4.03;;
27209;SDS011;14721;42.668;23.386;2023-04-25T02:45:50;10.17;;;4.87;;
27209;SDS011;14721;42.668;23.386;2023-04-25T02:48:16;9.50;;;4.30;;
27209;SDS011;14721;42.668;23.386;2023-04-25T02:50:42;6.20;;;3.70;;
27209;SDS011;14721;42.668;23.386;2023-04-25T02:53:07;8.27;;;4.73;;
27209;SDS011;14721;42.668;23.386;2023-04-25T02:55:33;8.27;;;4.90;;
27209;SDS011;14721;42.668;23.386;2023-04-25T02:57:59;8.27;;;4.70;;
27209;SDS011;14721;42.668;23.386;2023-04-25T03:00:24;8.30;;;4.67;;
27209;SDS011;14721;42.668;23.386;2023-04-25T03:02:50;8.80;;;5.13;;
27209;SDS011;14721;42.668;23.386;2023-04-25T03:05:16;8.63;;;5.17;;
27209;SDS011;14721;42.668;23.386;2023-04-25T03:07:42;8.07;;;4.50;;
27209;SDS011;14721;42.668;23.386;2023-04-25T03:10:09;8.07;;;4.57;;
27209;SDS011;14721;42.668;23.386;2023-04-25T03:12:35;8.53;;;4.73;;
27209;SDS011;14721;42.668;23.386;2023-04-25T03:15:01;8.13;;;4.67;;
27209;SDS011;14721;42.668;23.386;2023-04-25T03:17:27;11.30;;;5.53;;
27209;SDS011;14721;42.668;23.386;2023-04-25T03:19:53;9.20;;;4.67;;
27209;SDS011;14721;42.668;23.386;2023-04-25T03:22:18;8.07;;;4.97;;
27209;SDS011;14721;42.668;23.386;2023-04-25T03:24:47;8.80;;;5.23;;
27209;SDS011;14721;42.668;23.386;2023-04-25T03:27:12;11.40;;;5.17;;
27209;SDS011;14721;42.668;23.386;2023-04-25T03:29:38;10.67;;;4.70;;
27209;SDS011;14721;42.668;23.386;2023-04-25T03:32:03;9.10;;;4.77;;
27209;SDS011;14721;42.668;23.386;2023-04-25T03:34:29;12.60;;;5.97;;
27209;SDS011;14721;42.668;23.386;2023-04-25T03:36:54;9.43;;;5.43;;
27209;SDS011;14721;42.668;23.386;2023-04-25T03:39:20;8.77;;;4.53;;
27209;SDS011;14721;42.668;23.386;2023-04-25T03:41:46;8.77;;;5.10;;
27209;SDS011;14721;42.668;23.386;2023-04-25T03:44:11;11.50;;;6.73;;
27209;SDS011;14721;42.668;23.386;2023-04-25T03:46:37;11.00;;;6.03;;
27209;SDS011;14721;42.668;23.386;2023-04-25T03:49:02;10.33;;;6.17;;
27209;SDS011;14721;42.668;23.386;2023-04-25T03:51:28;12.60;;;5.80;;
27209;SDS011;14721;42.668;23.386;2023-04-25T03:53:54;10.23;;;6.27;;
27209;SDS011;14721;42.668;23.386;2023-04-25T03:56:19;13.57;;;6.50;;
27209;SDS011;14721;42.668;23.386;2023-04-25T03:58:45;11.43;;;5.37;;
27209;SDS011;14721;42.668;23.386;2023-04-25T04:01:11;12.03;;;6.17;;
27209;SDS011;14721;42.668;23.386;2023-04-25T04:03:36;14.30;;;8.13;;
27209;SDS011;14721;42.668;23.386;2023-04-25T04:06:03;22.43;;;12.20;;
27209;SDS011;14721;42.668;23.386;2023-04-25T04:08:30;12.80;;;7.03;;
27209;SDS011;14721;42.668;23.386;2023-04-25T04:10:57;19.60;;;9.83;;
27209;SDS011;14721;42.668;23.386;2023-04-25T04:13:25;16.30;;;8.97;;
27209;SDS011;14721;42.668;23.386;2023-04-25T04:15:51;12.60;;;6.90;;
27209;SDS011;14721;42.668;23.386;2023-04-25T04:18:17;12.40;;;7.27;;
27209;SDS011;14721;42.668;23.386;2023-04-25T04:20:42;13.03;;;6.43;;
27209;SDS011;14721;42.668;23.386;2023-04-25T04:23:08;11.43;;;6.67;;
27209;SDS011;14721;42.668;23.386;2023-04-25T04:25:33;10.03;;;5.77;;
27209;SDS011;14721;42.668;23.386;2023-04-25T04:27:59;8.40;;;4.77;;
27209;SDS011;14721;42.668;23.386;2023-04-25T04:30:26;9.63;;;5.30;;
27209;SDS011;14721;42.668;23.386;2023-04-25T04:32:55;8.03;;;4.67;;
27209;SDS011;14721;42.668;23.386;2023-04-25T04:35:21;7.73;;;4.37;;
27209;SDS011;14721;42.668;23.386;2023-04-25T04:37:48;10.53;;;4.80;;
27209;SDS011;14721;42.668;23.386;2023-04-25T04:40:14;10.43;;;5.77;;
27209;SDS011;14721;42.668;23.386;2023-04-25T04:42:43;8.30;;;4.63;;
27209;SDS011;14721;42.668;23.386;2023-04-25T04:45:12;9.50;;;5.33;;
27209;SDS011;14721;42.668;23.386;2023-04-25T04:47:38;7.00;;;4.50;;
27209;SDS011;14721;42.668;23.386;2023-04-25T04:50:08;11.07;;;6.23;;
27209;SDS011;14721;42.668;23.386;2023-04-25T04:52:35;11.30;;;6.27;;
27209;SDS011;14721;42.668;23.386;2023-04-25T04:55:02;10.87;;;6.37;;
27209;SDS011;14721;42.668;23.386;2023-04-25T04:57:28;12.97;;;7.73;;
27209;SDS011;14721;42.668;23.386;2023-04-25T04:59:54;9.87;;;6.27;;
27209;SDS011;14721;42.668;23.386;2023-04-25T05:02:20;12.40;;;7.33;;
27209;SDS011;14721;42.668;23.386;2023-04-25T05:04:46;13.57;;;7.03;;
27209;SDS011;14721;42.668;23.386;2023-04-25T05:07:12;12.13;;;7.20;;
27209;SDS011;14721;42.668;23.386;2023-04-25T05:09:38;9.90;;;5.73;;
27209;SDS011;14721;42.668;23.386;2023-04-25T05:12:04;11.60;;;5.67;;
27209;SDS011;14721;42.668;23.386;2023-04-25T05:14:30;12.20;;;7.67;;
27209;SDS011;14721;42.668;23.386;2023-04-25T05:16:55;14.27;;;6.63;;
27209;SDS011;14721;42.668;23.386;2023-04-25T05:19:21;11.50;;;6.57;;
27209;SDS011;14721;42.668;23.386;2023-04-25T05:21:46;9.93;;;6.03;;
27209;SDS011;14721;42.668;23.386;2023-04-25T05:24:12;10.20;;;5.50;;
27209;SDS011;14721;42.668;23.386;2023-04-25T05:26:37;12.07;;;6.97;;
27209;SDS011;14721;42.668;23.386;2023-04-25T05:29:03;19.70;;;9.90;;
27209;SDS011;14721;42.668;23.386;2023-04-25T05:31:29;15.17;;;7.77;;
27209;SDS011;14721;42.668;23.386;2023-04-25T05:33:54;12.50;;;6.50;;
27209;SDS011;14721;42.668;23.386;2023-04-25T05:36:20;14.20;;;7.00;;
27209;SDS011;14721;42.668;23.386;2023-04-25T05:38:46;15.27;;;7.97;;
27209;SDS011;14721;42.668;23.386;2023-04-25T05:41:11;12.10;;;7.30;;
27209;SDS011;14721;42.668;23.386;2023-04-25T05:43:37;11.00;;;6.60;;
27209;SDS011;14721;42.668;23.386;2023-04-25T05:46:03;15.00;;;7.70;;
27209;SDS011;14721;42.668;23.386;2023-04-25T05:48:28;13.33;;;7.63;;
27209;SDS011;14721;42.668;23.386;2023-04-25T05:50:53;11.80;;;6.53;;
27209;SDS011;14721;42.668;23.386;2023-04-25T05:53:20;11.07;;;6.23;;
27209;SDS011;14721;42.668;23.386;2023-04-25T05:55:46;12.63;;;7.03;;
27209;SDS011;14721;42.668;23.386;2023-04-25T05:58:12;11.20;;;5.77;;
27209;SDS011;14721;42.668;23.386;2023-04-25T06:00:38;11.57;;;6.93;;
27209;SDS011;14721;42.668;23.386;2023-04-25T06:03:03;7.20;;;4.57;;
27209;SDS011;14721;42.668;23.386;2023-04-25T06:05:29;8.13;;;4.30;;
27209;SDS011;14721;42.668;23.386;2023-04-25T06:07:55;6.53;;;4.33;;
27209;SDS011;14721;42.668;23.386;2023-04-25T06:10:20;7.33;;;3.93;;
27209;SDS011;14721;42.668;23.386;2023-04-25T06:12:46;8.63;;;4.10;;
27209;SDS011;14721;42.668;23.386;2023-04-25T06:15:12;7.03;;;4.20;;
27209;SDS011;14721;42.668;23.386;2023-04-25T06:17:37;11.80;;;4.90;;
27209;SDS011;14721;42.668;23.386;2023-04-25T06:20:03;6.77;;;4.33;;
27209;SDS011;14721;42.668;23.386;2023-04-25T06:22:29;8.47;;;4.93;;
27209;SDS011;14721;42.668;23.386;2023-04-25T06:24:54;9.27;;;5.27;;
27209;SDS011;14721;42.668;23.386;2023-04-25T06:27:22;8.30;;;4.47;;
27209;SDS011;14721;42.668;23.386;2023-04-25T06:29:47;8.10;;;5.20;;
27209;SDS011;14721;42.668;23.386;2023-04-25T06:32:13;7.87;;;4.50;;
27209;SDS011;14721;42.668;23.386;2023-04-25T06:34:39;7.40;;;4.70;;
27209;SDS011;14721;42.668;23.386;2023-04-25T06:37:04;8.17;;;4.53;;
27209;SDS011;14721;42.668;23.386;2023-04-25T06:39:30;11.30;;;4.67;;
27209;SDS011;14721;42.668;23.386;2023-04-25T06:41:57;10.63;;;4.77;;
27209;SDS011;14721;42.668;23.386;2023-04-25T06:44:23;8.97;;;4.97;;
27209;SDS011;14721;42.668;23.386;2023-04-25T06:46:49;8.23;;;4.47;;
27209;SDS011;14721;42.668;23.386;2023-04-25T06:49:17;6.17;;;4.23;;
27209;SDS011;14721;42.668;23.386;2023-04-25T06:51:43;6.03;;;3.85;;
27209;SDS011;14721;42.668;23.386;2023-04-25T06:54:08;5.05;;;2.92;;
27209;SDS011;14721;42.668;23.386;2023-04-25T06:56:34;3.72;;;2.53;;
27209;SDS011;14721;42.668;23.386;2023-04-25T06:59:02;5.78;;;3.33;;
27209;SDS011;14721;42.668;23.386;2023-04-25T07:01:28;5.70;;;3.47;;
27209;SDS011;14721;42.668;23.386;2023-04-25T07:03:54;7.28;;;2.55;;
27209;SDS011;14721;42.668;23.386;2023-04-25T07:06:22;4.70;;;2.55;;
27209;SDS011;14721;42.668;23.386;2023-04-25T07:08:51;3.50;;;2.22;;
27209;SDS011;14721;42.668;23.386;2023-04-25T07:11:17;6.15;;;2.58;;
27209;SDS011;14721;42.668;23.386;2023-04-25T07:13:42;4.35;;;2.65;;
27209;SDS011;14721;42.668;23.386;2023-04-25T07:16:08;4.27;;;2.53;;
27209;SDS011;14721;42.668;23.386;2023-04-25T07:18:35;4.47;;;2.78;;
27209;SDS011;14721;42.668;23.386;2023-04-25T07:21:01;4.50;;;3.22;;
27209;SDS011;14721;42.668;23.386;2023-04-25T07:23:27;7.57;;;3.47;;
27209;SDS011;14721;42.668;23.386;2023-04-25T07:25:52;3.75;;;2.40;;
27209;SDS011;14721;42.668;23.386;2023-04-25T07:28:18;4.45;;;2.83;;
27209;SDS011;14721;42.668;23.386;2023-04-25T07:30:43;8.38;;;3.67;;
27209;SDS011;14721;42.668;23.386;2023-04-25T07:33:08;4.50;;;2.70;;
27209;SDS011;14721;42.668;23.386;2023-04-25T07:35:34;6.03;;;3.15;;
27209;SDS011;14721;42.668;23.386;2023-04-25T07:38:00;6.55;;;3.75;;
27209;SDS011;14721;42.668;23.386;2023-04-25T07:40:26;4.57;;;2.90;;
27209;SDS011;14721;42.668;23.386;2023-04-25T07:43:10;5.47;;;2.95;;
27209;SDS011;14721;42.668;23.386;2023-04-25T07:45:39;6.35;;;3.10;;
27209;SDS011;14721;42.668;23.386;2023-04-25T07:48:04;5.82;;;3.00;;
27209;SDS011;14721;42.668;23.386;2023-04-25T07:50:30;5.53;;;2.85;;
27209;SDS011;14721;42.668;23.386;2023-04-25T07:52:56;5.07;;;2.83;;
27209;SDS011;14721;42.668;23.386;2023-04-25T07:55:21;5.80;;;2.50;;
27209;SDS011;14721;42.668;23.386;2023-04-25T07:57:47;8.00;;;3.97;;
27209;SDS011;14721;42.668;23.386;2023-04-25T08:00:13;8.27;;;3.80;;
27209;SDS011;14721;42.668;23.386;2023-04-25T08:02:39;7.55;;;4.03;;
27209;SDS011;14721;42.668;23.386;2023-04-25T08:05:05;7.65;;;3.75;;
27209;SDS011;14721;42.668;23.386;2023-04-25T08:07:33;5.60;;;3.90;;
27209;SDS011;14721;42.668;23.386;2023-04-25T08:09:59;7.15;;;4.20;;
27209;SDS011;14721;42.668;23.386;2023-04-25T08:12:24;8.70;;;4.28;;
27209;SDS011;14721;42.668;23.386;2023-04-25T08:14:50;5.38;;;3.63;;
27209;SDS011;14721;42.668;23.386;2023-04-25T08:17:15;7.35;;;3.60;;
27209;SDS011;14721;42.668;23.386;2023-04-25T08:19:41;6.85;;;4.00;;
27209;SDS011;14721;42.668;23.386;2023-04-25T08:22:06;6.28;;;3.65;;
27209;SDS011;14721;42.668;23.386;2023-04-25T08:24:32;5.20;;;3.50;;
27209;SDS011;14721;42.668;23.386;2023-04-25T08:26:58;6.25;;;2.88;;
27209;SDS011;14721;42.668;23.386;2023-04-25T08:29:24;6.88;;;3.85;;
27209;SDS011;14721;42.668;23.386;2023-04-25T08:31:50;7.63;;;3.17;;
27209;SDS011;14721;42.668;23.386;2023-04-25T08:34:17;6.35;;;3.42;;
27209;SDS011;14721;42.668;23.386;2023-04-25T08:36:43;5.18;;;3.80;;
27209;SDS011;14721;42.668;23.386;2023-04-25T08:39:08;7.03;;;3.55;;
27209;SDS011;14721;42.668;23.386;2023-04-25T08:41:36;7.78;;;4.03;;
27209;SDS011;14721;42.668;23.386;2023-04-25T08:44:03;6.20;;;3.67;;
27209;SDS011;14721;42.668;23.386;2023-04-25T08:46:28;8.73;;;3.63;;
27209;SDS011;14721;42.668;23.386;2023-04-25T08:48:57;8.05;;;3.47;;
27209;SDS011;14721;42.668;23.386;2023-04-25T08:51:27;7.38;;;3.45;;
27209;SDS011;14721;42.668;23.386;2023-04-25T08:53:56;7.80;;;3.20;;
27209;SDS011;14721;42.668;23.386;2023-04-25T08:56:37;5.90;;;3.22;;
27209;SDS011;14721;42.668;23.386;2023-04-25T08:59:03;6.68;;;3.67;;
27209;SDS011;14721;42.668;23.386;2023-04-25T09:01:29;7.57;;;4.50;;
27209;SDS011;14721;42.668;23.386;2023-04-25T09:03:55;9.52;;;6.15;;
27209;SDS011;14721;42.668;23.386;2023-04-25T09:06:22;8.95;;;4.95;;
27209;SDS011;14721;42.668;23.386;2023-04-25T09:08:49;7.28;;;4.65;;
27209;SDS011;14721;42.668;23.386;2023-04-25T09:11:15;6.85;;;4.57;;
27209;SDS011;14721;42.668;23.386;2023-04-25T09:13:41;7.35;;;4.18;;
27209;SDS011;14721;42.668;23.386;2023-04-25T09:16:06;7.78;;;4.20;;
27209;SDS011;14721;42.668;23.386;2023-04-25T09:18:33;10.35;;;4.32;;
27209;SDS011;14721;42.668;23.386;2023-04-25T09:21:06;7.03;;;4.28;;
27209;SDS011;14721;42.668;23.386;2023-04-25T09:23:38;5.60;;;4.35;;
27209;SDS011;14721;42.668;23.386;2023-04-25T09:26:06;7.60;;;4.45;;
27209;SDS011;14721;42.668;23.386;2023-04-25T09:28:32;7.93;;;4.32;;
27209;SDS011;14721;42.668;23.386;2023-04-25T09:30:57;7.18;;;3.97;;
27209;SDS011;14721;42.668;23.386;2023-04-25T09:33:27;6.38;;;3.33;;
27209;SDS011;14721;42.668;23.386;2023-04-25T09:36:01;5.90;;;3.65;;
27209;SDS011;14721;42.668;23.386;2023-04-25T09:38:29;13.65;;;8.88;;
27209;SDS011;14721;42.668;23.386;2023-04-25T09:40:56;7.32;;;3.92;;
27209;SDS011;14721;42.668;23.386;2023-04-25T09:43:22;5.20;;;3.05;;
27209;SDS011;14721;42.668;23.386;2023-04-25T09:45:50;5.97;;;3.20;;
27209;SDS011;14721;42.668;23.386;2023-04-25T09:48:18;5.95;;;3.15;;
27209;SDS011;14721;42.668;23.386;2023-04-25T09:50:45;6.32;;;2.97;;
27209;SDS011;14721;42.668;23.386;2023-04-25T09:53:28;6.80;;;3.53;;
27209;SDS011;14721;42.668;23.386;2023-04-25T09:55:54;6.55;;;3.72;;
27209;SDS011;14721;42.668;23.386;2023-04-25T09:58:21;5.85;;;3.35;;
27209;SDS011;14721;42.668;23.386;2023-04-25T10:00:50;5.28;;;3.20;;
27209;SDS011;14721;42.668;23.386;2023-04-25T10:03:19;5.82;;;2.95;;
27209;SDS011;14721;42.668;23.386;2023-04-25T10:05:47;5.63;;;3.53;;
27209;SDS011;14721;42.668;23.386;2023-04-25T10:08:14;4.90;;;3.30;;
27209;SDS011;14721;42.668;23.386;2023-04-25T10:10:41;5.57;;;3.28;;
27209;SDS011;14721;42.668;23.386;2023-04-25T10:13:07;4.75;;;2.38;;
27209;SDS011;14721;42.668;23.386;2023-04-25T10:15:36;3.85;;;2.42;;
27209;SDS011;14721;42.668;23.386;2023-04-25T10:18:02;8.77;;;3.15;;
27209;SDS011;14721;42.668;23.386;2023-04-25T10:20:29;3.75;;;2.17;;
27209;SDS011;14721;42.668;23.386;2023-04-25T10:22:57;3.13;;;1.88;;
27209;SDS011;14721;42.668;23.386;2023-04-25T10:25:28;6.72;;;2.40;;
27209;SDS011;14721;42.668;23.386;2023-04-25T10:27:54;7.80;;;3.33;;
27209;SDS011;14721;42.668;23.386;2023-04-25T10:30:20;4.65;;;3.22;;
27209;SDS011;14721;42.668;23.386;2023-04-25T10:32:45;5.28;;;3.20;;
27209;SDS011;14721;42.668;23.386;2023-04-25T10:35:16;7.37;;;3.27;;
27209;SDS011;14721;42.668;23.386;2023-04-25T10:40:25;5.23;;;2.70;;
27209;SDS011;14721;42.668;23.386;2023-04-25T10:42:54;5.27;;;3.10;;
27209;SDS011;14721;42.668;23.386;2023-04-25T10:45:22;7.87;;;3.53;;
27209;SDS011;14721;42.668;23.386;2023-04-25T10:47:48;8.00;;;3.30;;
27209;SDS011;14721;42.668;23.386;2023-04-25T10:50:14;5.38;;;2.97;;
27209;SDS011;14721;42.668;23.386;2023-04-25T10:52:43;4.65;;;2.55;;
27209;SDS011;14721;42.668;23.386;2023-04-25T10:55:09;3.13;;;1.80;;
27209;SDS011;14721;42.668;23.386;2023-04-25T10:57:44;2.65;;;1.42;;
27209;SDS011;14721;42.668;23.386;2023-04-25T11:00:18;6.90;;;2.40;;
27209;SDS011;14721;42.668;23.386;2023-04-25T11:05:33;2.10;;;1.17;;
27209;SDS011;14721;42.668;23.386;2023-04-25T11:08:04;1.95;;;1.10;;
27209;SDS011;14721;42.668;23.386;2023-04-25T11:10:36;1.00;;;0.65;;
27209;SDS011;14721;42.668;23.386;2023-04-25T11:13:01;3.08;;;1.10;;
27209;SDS011;14721;42.668;23.386;2023-04-25T11:15:27;4.63;;;1.50;;
27209;SDS011;14721;42.668;23.386;2023-04-25T11:17:54;2.60;;;1.42;;
27209;SDS011;14721;42.668;23.386;2023-04-25T11:20:20;6.70;;;1.67;;
27209;SDS011;14721;42.668;23.386;2023-04-25T11:22:46;2.60;;;1.45;;
27209;SDS011;14721;42.668;23.386;2023-04-25T11:25:12;2.97;;;1.48;;
27209;SDS011;14721;42.668;23.386;2023-04-25T11:30:22;4.53;;;1.88;;
27209;SDS011;14721;42.668;23.386;2023-04-25T11:32:49;5.75;;;1.70;;
27209;SDS011;14721;42.668;23.386;2023-04-25T11:35:15;5.05;;;1.33;;
27209;SDS011;14721;42.668;23.386;2023-04-25T11:37:42;3.42;;;1.45;;
27209;SDS011;14721;42.668;23.386;2023-04-25T11:40:08;6.28;;;2.10;;
27209;SDS011;14721;42.668;23.386;2023-04-25T11:42:38;3.28;;;1.70;;
27209;SDS011;14721;42.668;23.386;2023-04-25T11:45:04;4.68;;;1.48;;
27209;SDS011;14721;42.668;23.386;2023-04-25T11:47:31;4.18;;;1.50;;
27209;SDS011;14721;42.668;23.386;2023-04-25T11:49:58;2.33;;;1.42;;
27209;SDS011;14721;42.668;23.386;2023-04-25T11:52:47;2.28;;;1.20;;
27209;SDS011;14721;42.668;23.386;2023-04-25T11:55:14;6.25;;;1.80;;
27209;SDS011;14721;42.668;23.386;2023-04-25T11:57:41;3.25;;;1.63;;
27209;SDS011;14721;42.668;23.386;2023-04-25T12:00:13;3.47;;;1.20;;
27209;SDS011;14721;42.668;23.386;2023-04-25T12:02:42;1.63;;;0.70;;
27209;SDS011;14721;42.668;23.386;2023-04-25T12:05:09;1.97;;;1.00;;
27209;SDS011;14721;42.668;23.386;2023-04-25T12:07:36;4.83;;;1.53;;
27209;SDS011;14721;42.668;23.386;2023-04-25T12:10:09;5.57;;;1.00;;
27209;SDS011;14721;42.668;23.386;2023-04-25T12:12:37;1.23;;;0.82;;
27209;SDS011;14721;42.668;23.386;2023-04-25T12:15:13;2.45;;;1.10;;
27209;SDS011;14721;42.668;23.386;2023-04-25T12:17:41;1.20;;;0.70;;
27209;SDS011;14721;42.668;23.386;2023-04-25T12:20:10;1.03;;;0.70;;
27209;SDS011;14721;42.668;23.386;2023-04-25T12:22:40;1.70;;;0.80;;
27209;SDS011;14721;42.668;23.386;2023-04-25T12:25:10;0.88;;;0.55;;
27209;SDS011;14721;42.668;23.386;2023-04-25T12:27:36;0.68;;;0.50;;
27209;SDS011;14721;42.668;23.386;2023-04-25T12:30:02;1.17;;;0.60;;
27209;SDS011;14721;42.668;23.386;2023-04-25T12:32:28;1.92;;;0.80;;
27209;SDS011;14721;42.668;23.386;2023-04-25T12:34:54;3.40;;;0.75;;
27209;SDS011;14721;42.668;23.386;2023-04-25T12:37:20;0.63;;;0.50;;
27209;SDS011;14721;42.668;23.386;2023-04-25T12:39:47;1.27;;;0.80;;
27209;SDS011;14721;42.668;23.386;2023-04-25T12:42:12;4.25;;;0.88;;
27209;SDS011;14721;42.668;23.386;2023-04-25T12:44:38;3.15;;;0.75;;
27209;SDS011;14721;42.668;23.386;2023-04-25T12:47:03;4.60;;;0.80;;
27209;SDS011;14721;42.668;23.386;2023-04-25T12:49:30;7.47;;;0.98;;
27209;SDS011;14721;42.668;23.386;2023-04-25T12:51:56;5.68;;;1.00;;
27209;SDS011;14721;42.668;23.386;2023-04-25T12:54:22;4.87;;;0.80;;
27209;SDS011;14721;42.668;23.386;2023-04-25T12:56:47;2.60;;;0.80;;
27209;SDS011;14721;42.668;23.386;2023-04-25T12:59:13;3.90;;;1.20;;
27209;SDS011;14721;42.668;23.386;2023-04-25T13:01:39;4.13;;;0.97;;
27209;SDS011;14721;42.668;23.386;2023-04-25T13:04:04;15.97;;;7.33;;
27209;SDS011;14721;42.668;23.386;2023-04-25T13:06:30;3.57;;;1.53;;
27209;SDS011;14721;42.668;23.386;2023-04-25T13:08:55;4.07;;;1.27;;
27209;SDS011;14721;42.668;23.386;2023-04-25T13:11:21;3.03;;;1.10;;
27209;SDS011;14721;42.668;23.386;2023-04-25T13:13:46;2.13;;;1.00;;
27209;SDS011;14721;42.668;23.386;2023-04-25T13:16:12;3.23;;;1.13;;
27209;SDS011;14721;42.668;23.386;2023-04-25T13:18:41;3.00;;;0.90;;
27209;SDS011;14721;42.668;23.386;2023-04-25T13:21:09;4.53;;;1.13;;
27209;SDS011;14721;42.668;23.386;2023-04-25T13:23:35;4.37;;;1.50;;
27209;SDS011;14721;42.668;23.386;2023-04-25T13:26:01;3.67;;;1.27;;
27209;SDS011;14721;42.668;23.386;2023-04-25T13:28:27;3.27;;;1.23;;
27209;SDS011;14721;42.668;23.386;2023-04-25T13:30:52;3.97;;;1.37;;
27209;SDS011;14721;42.668;23.386;2023-04-25T13:33:19;6.00;;;1.63;;
27209;SDS011;14721;42.668;23.386;2023-04-25T13:35:45;4.20;;;1.17;;
27209;SDS011;14721;42.668;23.386;2023-04-25T13:38:21;4.83;;;1.60;;
27209;SDS011;14721;42.668;23.386;2023-04-25T13:40:49;1.43;;;1.10;;
27209;SDS011;14721;42.668;23.386;2023-04-25T13:43:17;4.00;;;1.60;;
27209;SDS011;14721;42.668;23.386;2023-04-25T13:45:43;4.23;;;1.60;;
27209;SDS011;14721;42.668;23.386;2023-04-25T13:48:08;3.23;;;1.70;;
27209;SDS011;14721;42.668;23.386;2023-04-25T13:50:34;3.57;;;1.87;;
27209;SDS011;14721;42.668;23.386;2023-04-25T13:53:00;5.10;;;2.03;;
27209;SDS011;14721;42.668;23.386;2023-04-25T13:55:26;7.50;;;1.50;;
27209;SDS011;14721;42.668;23.386;2023-04-25T13:57:51;3.93;;;2.10;;
27209;SDS011;14721;42.668;23.386;2023-04-25T14:00:17;3.53;;;1.50;;
27209;SDS011;14721;42.668;23.386;2023-04-25T14:02:42;4.33;;;1.70;;
27209;SDS011;14721;42.668;23.386;2023-04-25T14:05:08;3.37;;;1.20;;
27209;SDS011;14721;42.668;23.386;2023-04-25T14:07:34;2.60;;;1.50;;
27209;SDS011;14721;42.668;23.386;2023-04-25T14:10:00;3.00;;;1.60;;
27209;SDS011;14721;42.668;23.386;2023-04-25T14:12:25;6.47;;;1.90;;
27209;SDS011;14721;42.668;23.386;2023-04-25T14:14:51;4.83;;;1.53;;
27209;SDS011;14721;42.668;23.386;2023-04-25T14:17:18;3.57;;;2.00;;
27209;SDS011;14721;42.668;23.386;2023-04-25T14:19:47;5.97;;;1.10;;
27209;SDS011;14721;42.668;23.386;2023-04-25T14:22:15;5.50;;;2.27;;
27209;SDS011;14721;42.668;23.386;2023-04-25T14:24:40;5.50;;;1.80;;
27209;SDS011;14721;42.668;23.386;2023-04-25T14:27:06;2.43;;;1.33;;
27209;SDS011;14721;42.668;23.386;2023-04-25T14:29:32;2.53;;;1.30;;
27209;SDS011;14721;42.668;23.386;2023-04-25T14:31:57;8.47;;;3.20;;
27209;SDS011;14721;42.668;23.386;2023-04-25T14:34:24;3.87;;;1.30;;
27209;SDS011;14721;42.668;23.386;2023-04-25T14:36:50;1.30;;;0.80;;
27209;SDS011;14721;42.668;23.386;2023-04-25T14:39:16;1.37;;;0.97;;